Time;durP1;ratioP1;P1;durP2;ratioP2;P2;SDS_P1;SDS_P2;PMS_P1;PMS_P2;Temp;Humidity;BMP_temperature;BMP_pressure;BME280_temperature;BME280_humidity;BME280_pressure;Samples;Min_cycle;Max_cycle;Signal;HPM_P1;HPM_P2
2023/04/12 00:02:11;;;;;;;11.70;4.95;;;9.20;99.90;;;;;;5109111;28;20034;-74
2023/04/12 00:04:37;;;;;;;10.93;5.30;;;9.10;99.90;;;;;;5110972;28;20109;-74
2023/04/12 00:07:02;;;;;;;11.30;5.10;;;9.10;99.90;;;;;;5098355;28;20052;-74
2023/04/12 00:09:29;;;;;;;12.52;4.88;;;9.20;99.90;;;;;;5110887;28;20020;-74
2023/04/12 00:11:59;;;;;;;14.82;4.82;;;9.20;99.90;;;;;;5110634;28;20031;-74
2023/04/12 00:14:28;;;;;;;13.98;4.68;;;9.10;99.90;;;;;;5096530;28;20039;-74
2023/04/12 00:16:54;;;;;;;12.13;4.57;;;9.10;99.90;;;;;;5097282;28;20028;-74
2023/04/12 00:19:20;;;;;;;9.45;4.22;;;9.10;99.90;;;;;;5102713;28;20062;-74
2023/04/12 00:21:45;;;;;;;12.52;4.40;;;9.10;99.90;;;;;;5093485;28;20456;-74
2023/04/12 00:24:12;;;;;;;12.27;4.07;;;9.10;99.90;;;;;;5104513;28;20031;-74
2023/04/12 00:26:37;;;;;;;13.05;4.07;;;9.10;99.90;;;;;;5110195;28;20023;-74
2023/04/12 00:29:03;;;;;;;12.73;3.97;;;9.10;99.90;;;;;;5109990;28;20073;-74
2023/04/12 00:31:29;;;;;;;9.57;3.70;;;9.10;99.90;;;;;;5102179;28;20536;-74
2023/04/12 00:33:55;;;;;;;9.57;4.05;;;9.10;99.90;;;;;;5108362;28;20103;-74
2023/04/12 00:36:20;;;;;;;9.63;3.60;;;9.10;99.90;;;;;;5088162;28;20076;-74
2023/04/12 00:38:46;;;;;;;9.52;3.40;;;9.10;99.90;;;;;;5108314;28;20028;-74
2023/04/12 00:41:13;;;;;;;10.95;3.70;;;9.10;99.90;;;;;;5101274;28;20024;-74
2023/04/12 00:43:40;;;;;;;7.63;3.25;;;9.10;99.90;;;;;;5108600;28;20039;-74
2023/04/12 00:46:06;;;;;;;10.52;3.90;;;9.10;99.90;;;;;;5072659;28;20044;-74
2023/04/12 00:48:32;;;;;;;10.27;3.38;;;9.10;99.90;;;;;;5087711;28;20453;-74
2023/04/12 00:51:00;;;;;;;10.15;3.30;;;9.10;99.90;;;;;;5097041;28;20081;-74
2023/04/12 00:53:26;;;;;;;8.73;2.85;;;9.10;99.90;;;;;;5109792;28;20281;-74
2023/04/12 00:55:53;;;;;;;6.57;3.08;;;9.10;99.90;;;;;;5109788;28;20016;-74
2023/04/12 00:58:23;;;;;;;9.93;3.10;;;9.10;99.90;;;;;;5110471;28;20027;-74
2023/04/12 01:00:51;;;;;;;6.25;3.40;;;9.10;99.90;;;;;;5104521;28;20134;-74
2023/04/12 01:03:21;;;;;;;6.72;3.15;;;9.10;99.90;;;;;;5110581;28;20063;-74
2023/04/12 01:06:28;;;;;;;6.43;3.55;;;9.10;99.90;;;;;;5093298;28;20030;-74
2023/04/12 01:09:10;;;;;;;5.00;2.78;;;9.10;99.90;;;;;;5099449;28;20098;-74
2023/04/12 01:11:43;;;;;;;5.68;2.60;;;9.00;99.90;;;;;;5099256;28;20021;-74
2023/04/12 01:14:29;;;;;;;6.32;2.80;;;9.00;99.90;;;;;;5098923;28;20256;-74
2023/04/12 01:16:58;;;;;;;9.13;2.80;;;9.00;99.90;;;;;;5111183;28;20427;-74
2023/04/12 01:19:52;;;;;;;5.57;2.72;;;9.00;99.90;;;;;;5096235;28;20664;-74
2023/04/12 01:22:37;;;;;;;4.25;2.40;;;9.10;99.90;;;;;;5101007;28;20028;-74
2023/04/12 01:25:26;;;;;;;7.57;2.63;;;9.00;99.90;;;;;;5092005;28;20082;-74
2023/04/12 01:27:56;;;;;;;5.50;2.40;;;9.00;99.90;;;;;;5106342;27;20027;-74
2023/04/12 01:30:24;;;;;;;4.40;2.47;;;9.00;99.90;;;;;;5093672;28;20027;-74
2023/04/12 01:32:52;;;;;;;7.03;2.72;;;9.00;99.90;;;;;;5093889;28;20035;-74
2023/04/12 01:35:21;;;;;;;9.35;2.35;;;9.00;99.90;;;;;;5110345;28;20015;-74
2023/04/12 01:37:47;;;;;;;7.07;2.40;;;9.00;99.90;;;;;;5099408;28;20481;-74
2023/04/12 01:40:13;;;;;;;5.50;2.20;;;9.00;99.90;;;;;;5105834;28;20024;-74
2023/04/12 01:42:38;;;;;;;4.68;1.90;;;9.00;99.90;;;;;;5112876;28;20012;-74
2023/04/12 01:45:05;;;;;;;4.85;2.00;;;8.90;99.90;;;;;;5114072;28;20043;-74
2023/04/12 01:47:32;;;;;;;9.77;2.50;;;8.90;99.90;;;;;;5107451;28;20044;-74
2023/04/12 01:50:24;;;;;;;5.75;1.90;;;8.90;99.90;;;;;;5105454;28;20156;-74
2023/04/12 01:53:03;;;;;;;6.82;2.22;;;9.00;99.90;;;;;;5108603;28;20036;-74
2023/04/12 01:55:32;;;;;;;5.10;2.00;;;9.00;99.90;;;;;;5108047;28;20077;-74
2023/04/12 01:58:01;;;;;;;4.25;1.88;;;9.00;99.90;;;;;;5106883;28;20085;-74
2023/04/12 02:00:27;;;;;;;6.20;2.58;;;9.00;99.90;;;;;;5112668;28;20390;-74
2023/04/12 02:02:53;;;;;;;6.75;2.50;;;8.90;99.90;;;;;;5113396;28;20035;-74
2023/04/12 02:05:20;;;;;;;4.63;2.20;;;9.00;99.90;;;;;;5094538;28;20104;-74
2023/04/12 02:07:47;;;;;;;5.65;2.15;;;9.00;99.90;;;;;;5112074;28;20023;-74
2023/04/12 02:10:14;;;;;;;4.72;2.17;;;8.90;99.90;;;;;;5113289;28;20106;-74
2023/04/12 02:12:40;;;;;;;5.40;1.95;;;8.90;99.90;;;;;;5110837;28;20028;-74
2023/04/12 02:15:07;;;;;;;4.35;2.50;;;8.90;99.90;;;;;;5101765;28;20106;-74
2023/04/12 02:17:36;;;;;;;6.32;2.40;;;8.90;99.90;;;;;;5099452;28;20038;-74
2023/04/12 02:20:05;;;;;;;7.50;2.70;;;8.90;99.90;;;;;;5112507;28;20478;-74
2023/04/12 02:22:31;;;;;;;5.28;2.50;;;8.90;99.90;;;;;;5105747;28;20055;-74
2023/04/12 02:24:58;;;;;;;5.97;2.72;;;8.90;99.90;;;;;;5110096;28;20722;-74
2023/04/12 02:27:24;;;;;;;4.75;2.20;;;8.90;99.90;;;;;;5101849;28;20027;-74
2023/04/12 02:29:49;;;;;;;4.47;2.25;;;8.90;99.90;;;;;;5098488;28;20028;-74
2023/04/12 02:32:15;;;;;;;6.80;2.15;;;8.90;99.90;;;;;;5110037;28;20521;-74
2023/04/12 02:34:41;;;;;;;5.85;2.15;;;9.00;99.90;;;;;;5112064;28;20030;-74
2023/04/12 02:37:06;;;;;;;6.13;2.20;;;8.90;99.90;;;;;;5112516;28;20012;-74
2023/04/12 02:39:33;;;;;;;4.60;1.98;;;8.90;99.90;;;;;;5110745;28;20120;-74
2023/04/12 02:42:00;;;;;;;6.05;2.17;;;8.90;99.90;;;;;;5110942;28;20517;-74
2023/04/12 02:44:28;;;;;;;5.55;2.15;;;8.90;99.90;;;;;;5105160;28;20352;-74
2023/04/12 02:46:55;;;;;;;6.35;2.22;;;8.90;99.90;;;;;;5105948;28;20107;-74
2023/04/12 02:49:20;;;;;;;7.78;2.10;;;8.90;99.90;;;;;;5112403;28;20038;-74
2023/04/12 02:51:46;;;;;;;3.28;1.85;;;8.90;99.90;;;;;;5112285;28;20035;-74
2023/04/12 02:54:11;;;;;;;3.13;1.65;;;8.90;99.90;;;;;;5112471;28;20024;-74
2023/04/12 02:56:37;;;;;;;4.05;1.80;;;8.90;99.90;;;;;;5104380;28;20406;-74
2023/04/12 02:59:03;;;;;;;6.18;2.05;;;8.90;99.90;;;;;;5113658;28;20027;-74
2023/04/12 03:01:28;;;;;;;4.90;2.05;;;8.90;99.90;;;;;;5103604;28;20023;-74
2023/04/12 03:03:54;;;;;;;4.38;1.70;;;8.80;99.90;;;;;;5113874;28;20052;-74
2023/04/12 03:06:19;;;;;;;3.42;1.90;;;8.80;99.90;;;;;;5092506;28;20023;-74
2023/04/12 03:08:45;;;;;;;8.43;1.98;;;8.90;99.90;;;;;;5092559;28;20012;-74
2023/04/12 03:11:10;;;;;;;4.45;1.98;;;8.80;99.90;;;;;;5093678;28;20036;-74
2023/04/12 03:13:36;;;;;;;6.88;2.35;;;8.80;99.90;;;;;;5103908;28;20024;-74
2023/04/12 03:16:20;;;;;;;6.97;2.10;;;8.90;99.90;;;;;;5102907;28;20054;-74
2023/04/12 03:18:46;;;;;;;4.10;1.95;;;8.90;99.90;;;;;;5101843;28;20020;-74
2023/04/12 03:21:11;;;;;;;2.90;1.98;;;8.80;99.90;;;;;;5105947;28;20024;-74
2023/04/12 03:23:37;;;;;;;9.07;2.10;;;8.90;99.90;;;;;;5102475;28;20542;-74
2023/04/12 03:26:02;;;;;;;3.38;2.10;;;8.90;99.90;;;;;;5091606;28;20020;-74
2023/04/12 03:28:28;;;;;;;4.00;2.22;;;8.90;99.90;;;;;;5097052;28;20045;-74
2023/04/12 03:30:53;;;;;;;5.55;2.35;;;8.90;99.90;;;;;;5110989;28;20063;-74
2023/04/12 03:33:19;;;;;;;5.50;2.38;;;8.90;99.90;;;;;;5112216;28;20076;-74
2023/04/12 03:35:45;;;;;;;5.25;2.60;;;8.90;99.90;;;;;;5109078;28;20028;-74
2023/04/12 03:38:10;;;;;;;3.90;2.20;;;8.90;99.90;;;;;;5111328;28;20031;-74
2023/04/12 03:40:36;;;;;;;5.95;2.83;;;8.90;99.90;;;;;;5112617;28;20095;-74
2023/04/12 03:43:01;;;;;;;3.78;2.60;;;8.90;99.90;;;;;;5107135;28;20027;-74
2023/04/12 03:45:27;;;;;;;6.90;2.70;;;8.90;99.90;;;;;;5114738;28;20031;-74
2023/04/12 03:47:53;;;;;;;3.92;2.38;;;8.90;99.90;;;;;;5115280;28;20075;-74
2023/04/12 03:50:19;;;;;;;4.65;2.63;;;8.90;99.90;;;;;;5110630;28;20106;-74
2023/04/12 03:52:45;;;;;;;5.78;3.10;;;8.90;99.90;;;;;;5111219;28;20480;-74
2023/04/12 03:55:12;;;;;;;4.97;3.47;;;8.90;99.90;;;;;;5106963;28;20017;-74
2023/04/12 03:57:38;;;;;;;4.38;3.13;;;8.90;99.90;;;;;;5102681;28;20016;-74
2023/04/12 04:00:04;;;;;;;5.22;3.67;;;8.90;99.90;;;;;;5093320;28;20481;-74
2023/04/12 04:02:30;;;;;;;5.82;3.60;;;8.90;99.90;;;;;;5103027;28;20572;-74
2023/04/12 04:04:56;;;;;;;5.38;3.65;;;8.90;99.90;;;;;;5092836;28;20099;-74
2023/04/12 04:07:21;;;;;;;7.28;4.15;;;8.90;99.90;;;;;;5091164;28;20117;-74
2023/04/12 04:09:48;;;;;;;7.82;4.18;;;8.90;99.90;;;;;;5091296;28;20378;-74
2023/04/12 04:12:14;;;;;;;4.95;3.92;;;8.90;99.90;;;;;;5091629;28;20024;-74
2023/04/12 04:14:39;;;;;;;5.82;3.92;;;8.90;99.90;;;;;;5096816;28;20046;-74
2023/04/12 04:17:05;;;;;;;7.13;4.90;;;8.90;99.90;;;;;;5099286;28;20077;-74
2023/04/12 04:19:31;;;;;;;7.40;5.13;;;9.00;99.90;;;;;;5091343;28;20019;-74
2023/04/12 04:21:57;;;;;;;9.02;6.50;;;8.90;99.90;;;;;;5098976;28;20046;-74
2023/04/12 04:24:24;;;;;;;11.07;8.63;;;9.00;99.90;;;;;;5109631;28;20385;-74
2023/04/12 04:26:53;;;;;;;10.13;8.55;;;9.00;99.90;;;;;;5107529;28;20019;-74
2023/04/12 04:29:18;;;;;;;10.57;7.97;;;9.00;99.90;;;;;;5101965;28;20055;-74
2023/04/12 04:31:44;;;;;;;12.00;7.75;;;9.00;99.90;;;;;;5106588;28;20043;-74
2023/04/12 04:34:10;;;;;;;10.27;7.25;;;9.00;99.90;;;;;;5102706;28;20066;-74
2023/04/12 04:36:37;;;;;;;10.88;7.03;;;9.00;99.90;;;;;;5104630;28;20435;-74
2023/04/12 04:39:06;;;;;;;11.32;7.45;;;9.00;99.90;;;;;;5097145;28;20513;-74
2023/04/12 04:41:38;;;;;;;11.63;7.80;;;9.00;99.90;;;;;;5101031;28;20036;-74
2023/04/12 04:44:09;;;;;;;10.13;8.27;;;9.10;99.90;;;;;;5104031;28;20483;-74
2023/04/12 04:46:36;;;;;;;12.88;8.90;;;9.10;99.90;;;;;;5090334;28;20044;-75
2023/04/12 04:49:03;;;;;;;12.15;8.63;;;9.10;99.90;;;;;;5090885;28;20281;-74
2023/04/12 04:51:28;;;;;;;13.30;8.13;;;9.20;99.90;;;;;;5098608;28;20054;-75
2023/04/12 04:53:54;;;;;;;13.23;8.05;;;9.20;99.90;;;;;;5104029;28;20507;-74
2023/04/12 04:56:22;;;;;;;12.75;7.38;;;9.20;99.90;;;;;;5106584;28;20106;-74
2023/04/12 04:58:48;;;;;;;11.13;7.63;;;9.30;99.90;;;;;;5104972;28;20028;-74
2023/04/12 05:01:15;;;;;;;21.08;7.82;;;9.30;99.90;;;;;;5112225;28;20028;-75
2023/04/12 05:03:44;;;;;;;21.52;8.00;;;9.30;99.90;;;;;;5113489;28;20478;-74
2023/04/12 05:06:10;;;;;;;18.38;8.32;;;9.40;99.90;;;;;;5110022;28;20039;-75
2023/04/12 05:08:36;;;;;;;19.58;8.38;;;9.40;99.90;;;;;;5108883;28;20389;-75
2023/04/12 05:11:02;;;;;;;16.77;8.32;;;9.40;99.90;;;;;;5113677;28;20024;-74
2023/04/12 05:13:27;;;;;;;21.83;8.40;;;9.40;99.90;;;;;;5103839;28;20022;-74
2023/04/12 05:15:53;;;;;;;18.45;7.93;;;9.50;99.90;;;;;;5113732;28;20084;-75
2023/04/12 05:18:19;;;;;;;20.50;7.03;;;9.50;99.90;;;;;;5104115;28;20069;-74
2023/04/12 05:20:45;;;;;;;20.00;6.63;;;9.50;99.90;;;;;;5108391;28;20098;-74
2023/04/12 05:23:10;;;;;;;13.15;5.38;;;9.50;99.90;;;;;;5097906;28;20028;-74
2023/04/12 05:25:36;;;;;;;16.50;6.20;;;9.50;99.90;;;;;;5109659;28;20493;-73
2023/04/12 05:28:02;;;;;;;19.92;5.35;;;9.50;99.90;;;;;;5109346;28;20410;-73
2023/04/12 05:30:28;;;;;;;19.88;4.97;;;9.50;99.90;;;;;;5106139;28;20110;-73
2023/04/12 05:32:53;;;;;;;24.67;4.60;;;9.50;99.90;;;;;;5079367;28;20041;-74
2023/04/12 05:35:19;;;;;;;24.17;4.97;;;9.50;99.90;;;;;;5105138;28;20462;-73
2023/04/12 05:37:45;;;;;;;20.90;3.88;;;9.50;99.90;;;;;;5116101;28;20102;-75
2023/04/12 05:40:11;;;;;;;22.77;3.78;;;9.50;99.90;;;;;;5093736;28;20044;-74
2023/04/12 05:42:36;;;;;;;18.85;4.10;;;9.50;99.90;;;;;;5115241;28;20028;-74
2023/04/12 05:45:04;;;;;;;20.60;4.28;;;9.50;99.90;;;;;;5116133;28;20027;-74
2023/04/12 05:47:29;;;;;;;25.85;4.40;;;9.50;99.90;;;;;;5115665;28;20237;-74
2023/04/12 05:49:55;;;;;;;29.70;4.00;;;9.50;99.90;;;;;;5102104;28;20024;-75
2023/04/12 05:52:21;;;;;;;21.50;4.20;;;9.50;99.90;;;;;;5115459;28;20496;-74
2023/04/12 05:54:51;;;;;;;23.40;4.70;;;9.50;99.90;;;;;;5115179;28;20038;-73
2023/04/12 05:57:17;;;;;;;22.30;3.63;;;9.50;99.90;;;;;;5114449;28;20026;-75
2023/04/12 05:59:42;;;;;;;25.83;4.13;;;9.50;99.90;;;;;;5110164;28;20557;-73
2023/04/12 06:02:09;;;;;;;27.67;3.78;;;9.50;99.90;;;;;;5115288;28;20552;-73
2023/04/12 06:04:37;;;;;;;28.48;3.90;;;9.50;99.90;;;;;;5105420;28;20103;-75
2023/04/12 06:07:04;;;;;;;25.08;3.85;;;9.50;99.90;;;;;;5115311;28;20128;-75
2023/04/12 06:09:30;;;;;;;27.60;4.55;;;9.50;99.90;;;;;;5114974;28;20031;-75
2023/04/12 06:11:58;;;;;;;23.38;4.05;;;9.50;99.90;;;;;;5114222;28;20076;-76
2023/04/12 06:14:24;;;;;;;27.77;4.07;;;9.60;99.90;;;;;;5114619;28;20034;-74
2023/04/12 06:16:50;;;;;;;30.48;4.22;;;9.60;99.90;;;;;;5114489;28;20036;-74
2023/04/12 06:19:15;;;;;;;22.13;3.85;;;9.60;99.90;;;;;;5101108;28;20030;-74
2023/04/12 06:21:41;;;;;;;26.83;3.83;;;9.60;99.90;;;;;;5114056;28;20027;-75
2023/04/12 06:24:07;;;;;;;30.88;4.60;;;9.60;99.90;;;;;;5111268;28;20020;-73
2023/04/12 06:26:32;;;;;;;29.38;4.45;;;9.60;99.90;;;;;;5100771;28;20019;-74
2023/04/12 06:28:58;;;;;;;25.27;3.67;;;9.60;99.90;;;;;;5113518;28;20023;-74
2023/04/12 06:31:23;;;;;;;26.58;4.25;;;9.60;99.90;;;;;;5106738;28;20028;-74
2023/04/12 06:33:49;;;;;;;28.60;4.00;;;9.50;99.90;;;;;;5112685;28;20053;-74
2023/04/12 06:36:15;;;;;;;30.50;4.20;;;9.50;99.90;;;;;;5113485;28;20344;-74
2023/04/12 06:38:41;;;;;;;28.52;3.42;;;9.50;99.90;;;;;;5113869;28;20020;-73
2023/04/12 06:41:06;;;;;;;29.50;3.78;;;9.50;99.90;;;;;;5111434;28;20039;-73
2023/04/12 06:43:32;;;;;;;28.73;3.67;;;9.60;99.90;;;;;;5111904;28;20028;-73
2023/04/12 06:45:58;;;;;;;27.33;3.90;;;9.60;99.90;;;;;;5093411;28;20024;-73
2023/04/12 06:48:24;;;;;;;32.85;4.28;;;9.60;99.90;;;;;;5107843;28;20040;-73
2023/04/12 06:50:50;;;;;;;37.58;4.10;;;9.60;99.90;;;;;;5113401;28;20020;-73
2023/04/12 06:53:15;;;;;;;41.63;4.00;;;9.70;99.90;;;;;;5102508;28;20119;-73
2023/04/12 06:55:41;;;;;;;26.35;3.90;;;9.60;99.90;;;;;;5108019;28;20027;-73
2023/04/12 06:58:06;;;;;;;27.58;3.92;;;9.70;99.90;;;;;;5110234;28;20024;-73
2023/04/12 07:00:32;;;;;;;27.88;4.15;;;9.70;99.90;;;;;;5113383;28;20016;-73
2023/04/12 07:02:58;;;;;;;27.88;3.97;;;9.70;99.90;;;;;;5098437;28;20024;-73
2023/04/12 07:05:23;;;;;;;31.02;4.13;;;9.70;99.90;;;;;;5111855;28;20099;-73
2023/04/12 07:07:49;;;;;;;28.63;4.05;;;9.70;99.90;;;;;;5115020;28;20023;-73
2023/04/12 07:10:14;;;;;;;24.35;3.75;;;9.70;99.90;;;;;;5116923;28;20137;-73
2023/04/12 07:12:41;;;;;;;29.45;3.67;;;9.70;99.90;;;;;;5114023;28;20038;-73
2023/04/12 07:15:07;;;;;;;25.75;4.15;;;9.70;99.90;;;;;;5102293;28;20027;-73
2023/04/12 07:17:33;;;;;;;25.50;3.90;;;9.70;99.90;;;;;;5110935;28;20018;-73
2023/04/12 07:19:59;;;;;;;25.38;3.63;;;9.70;99.90;;;;;;5098324;28;20027;-73
2023/04/12 07:22:24;;;;;;;27.17;4.28;;;9.70;99.90;;;;;;5101671;28;20036;-73
2023/04/12 07:24:50;;;;;;;36.45;3.63;;;9.70;99.90;;;;;;5112073;28;20030;-72
2023/04/12 07:27:16;;;;;;;21.20;3.45;;;9.80;99.90;;;;;;5110537;28;20024;-72
2023/04/12 07:29:41;;;;;;;17.77;3.10;;;9.90;99.90;;;;;;5092397;28;20023;-72
2023/04/12 07:32:09;;;;;;;22.02;4.03;;;10.00;99.90;;;;;;5109473;28;20026;-71
2023/04/12 07:34:35;;;;;;;36.75;3.83;;;10.10;99.90;;;;;;5113195;28;20048;-72
2023/04/12 07:37:01;;;;;;;27.15;3.90;;;10.20;99.90;;;;;;5110237;28;20797;-72
2023/04/12 07:39:28;;;;;;;25.13;3.72;;;10.30;99.90;;;;;;5110327;28;20016;-71
2023/04/12 07:41:54;;;;;;;24.30;4.18;;;10.40;99.90;;;;;;5104482;28;20067;-72
2023/04/12 07:44:20;;;;;;;27.67;3.78;;;10.40;99.90;;;;;;5106773;28;20363;-72
2023/04/12 07:46:46;;;;;;;26.95;3.90;;;10.40;99.90;;;;;;5106368;28;20056;-72
2023/04/12 07:49:12;;;;;;;21.13;3.58;;;10.40;99.90;;;;;;5096921;28;20031;-72
2023/04/12 07:51:37;;;;;;;24.02;4.28;;;10.50;99.90;;;;;;5102306;27;20090;-72
2023/04/12 07:54:03;;;;;;;27.38;4.28;;;10.50;99.90;;;;;;5105475;27;20027;-72
2023/04/12 07:56:29;;;;;;;25.63;3.70;;;10.50;99.90;;;;;;5111228;28;20020;-72
2023/04/12 07:58:55;;;;;;;33.53;3.38;;;10.50;99.90;;;;;;5103257;28;20545;-72
2023/04/12 08:01:20;;;;;;;22.20;3.78;;;10.60;99.90;;;;;;5103624;28;20027;-72
2023/04/12 08:03:46;;;;;;;24.25;2.97;;;10.70;99.90;;;;;;5094167;28;20035;-72
2023/04/12 08:06:12;;;;;;;24.75;3.15;;;10.70;99.90;;;;;;5109392;28;20466;-72
2023/04/12 08:08:37;;;;;;;19.50;3.20;;;10.60;99.90;;;;;;5094931;28;20016;-72
2023/04/12 08:11:05;;;;;;;19.30;2.85;;;10.60;99.90;;;;;;5108101;28;20033;-72
2023/04/12 08:13:31;;;;;;;24.35;3.42;;;10.60;99.90;;;;;;5085657;28;20024;-72
2023/04/12 08:15:57;;;;;;;24.65;4.15;;;10.70;99.90;;;;;;5105129;28;20020;-72
2023/04/12 08:18:22;;;;;;;18.63;2.97;;;10.70;99.90;;;;;;5086180;28;20060;-72
2023/04/12 08:20:48;;;;;;;24.15;3.42;;;10.70;99.90;;;;;;5099123;28;20027;-72
2023/04/12 08:23:14;;;;;;;25.80;3.60;;;10.80;99.90;;;;;;5102788;28;20080;-72
2023/04/12 08:25:40;;;;;;;22.83;3.63;;;10.80;99.90;;;;;;5108971;28;20026;-72
2023/04/12 08:28:07;;;;;;;29.77;4.00;;;10.90;99.90;;;;;;5110723;28;20398;-72
2023/04/12 08:30:33;;;;;;;21.90;3.38;;;11.00;99.90;;;;;;5110056;28;20023;-71
2023/04/12 08:32:59;;;;;;;27.17;3.97;;;11.10;99.90;;;;;;5111856;28;20382;-72
2023/04/12 08:35:24;;;;;;;22.98;3.90;;;11.10;99.90;;;;;;5109586;28;20023;-73
2023/04/12 08:37:50;;;;;;;24.33;3.55;;;11.20;99.90;;;;;;5106211;28;20102;-73
2023/04/12 08:40:16;;;;;;;22.95;3.20;;;11.30;99.90;;;;;;5106539;28;20078;-72
2023/04/12 08:42:42;;;;;;;24.58;3.65;;;11.40;99.90;;;;;;5100826;28;20027;-72
2023/04/12 08:45:10;;;;;;;20.88;3.80;;;11.40;99.90;;;;;;5112010;28;20022;-72
2023/04/12 08:47:38;;;;;;;20.08;3.08;;;11.50;99.90;;;;;;5111717;28;20123;-72
2023/04/12 08:50:11;;;;;;;21.88;3.20;;;11.60;99.90;;;;;;5098459;28;20056;-72
2023/04/12 08:52:37;;;;;;;18.95;3.72;;;11.60;99.90;;;;;;5112330;28;20072;-73
2023/04/12 08:55:07;;;;;;;21.75;3.28;;;11.70;99.90;;;;;;5095645;28;20433;-72
2023/04/12 08:57:34;;;;;;;19.02;3.45;;;11.70;99.90;;;;;;5091614;28;20109;-72
2023/04/12 09:00:01;;;;;;;21.95;3.80;;;11.70;99.90;;;;;;5105396;28;20021;-72
2023/04/12 09:02:27;;;;;;;27.85;3.92;;;11.60;99.90;;;;;;5102004;28;20036;-72
2023/04/12 09:04:53;;;;;;;15.25;2.90;;;11.60;99.90;;;;;;5095684;28;20039;-73
2023/04/12 09:07:22;;;;;;;17.08;3.20;;;11.60;99.90;;;;;;5092241;28;20429;-72
2023/04/12 09:09:48;;;;;;;20.73;3.35;;;11.60;99.90;;;;;;5096909;28;20549;-72
2023/04/12 09:12:15;;;;;;;26.02;3.60;;;11.70;99.90;;;;;;5099963;28;20103;-73
2023/04/12 09:14:44;;;;;;;26.90;3.47;;;11.60;99.90;;;;;;5105832;28;20035;-73
2023/04/12 09:17:27;;;;;;;20.58;2.85;;;11.60;99.90;;;;;;5103725;28;20024;-73
2023/04/12 09:19:54;;;;;;;23.17;3.50;;;11.70;99.90;;;;;;5091599;28;20043;-72
2023/04/12 09:22:33;;;;;;;22.60;3.70;;;11.80;99.90;;;;;;5100202;28;20475;-72
2023/04/12 09:24:58;;;;;;;25.67;3.42;;;11.80;99.90;;;;;;5091692;28;20441;-72
2023/04/12 09:27:24;;;;;;;20.50;3.22;;;11.90;99.90;;;;;;5091477;28;20024;-72
2023/04/12 09:29:50;;;;;;;23.50;3.70;;;11.90;99.90;;;;;;5104596;28;20485;-72
2023/04/12 09:32:25;;;;;;;20.67;3.28;;;11.80;99.90;;;;;;5073590;28;20101;-72
2023/04/12 09:35:00;;;;;;;17.85;3.65;;;11.90;99.90;;;;;;5092177;28;20036;-72
2023/04/12 09:37:25;;;;;;;24.20;3.80;;;11.90;99.90;;;;;;5073555;28;20031;-72
2023/04/12 09:40:00;;;;;;;25.48;3.55;;;12.00;99.90;;;;;;5106933;28;20467;-72
2023/04/12 09:42:26;;;;;;;18.40;3.63;;;12.00;99.90;;;;;;5101154;28;20031;-72
2023/04/12 09:44:53;;;;;;;23.85;3.75;;;12.00;99.90;;;;;;5111460;28;20028;-73
2023/04/12 09:47:19;;;;;;;25.13;3.88;;;12.00;99.90;;;;;;5093072;28;20083;-73
2023/04/12 09:49:45;;;;;;;28.33;4.22;;;12.00;99.90;;;;;;5108310;28;20034;-73
2023/04/12 09:52:12;;;;;;;20.10;3.85;;;12.00;99.90;;;;;;5095968;28;20027;-72
2023/04/12 09:54:40;;;;;;;17.10;3.05;;;12.10;99.90;;;;;;5101650;28;20104;-72
2023/04/12 09:57:07;;;;;;;17.38;3.17;;;12.20;99.90;;;;;;5095594;28;20375;-72
2023/04/12 09:59:41;;;;;;;16.52;3.10;;;12.40;99.90;;;;;;5090548;28;20111;-72
2023/04/12 10:02:15;;;;;;;17.02;2.45;;;12.50;99.90;;;;;;5104007;28;20031;-72
2023/04/12 10:04:41;;;;;;;20.33;3.25;;;12.50;99.90;;;;;;5099013;28;20020;-73
2023/04/12 10:07:07;;;;;;;20.30;2.90;;;12.50;99.90;;;;;;5104666;28;20035;-72
2023/04/12 10:09:42;;;;;;;26.42;3.35;;;12.50;99.90;;;;;;5098166;28;20020;-72
2023/04/12 10:12:08;;;;;;;18.83;3.00;;;12.50;99.90;;;;;;5095314;28;20439;-73
2023/04/12 10:14:34;;;;;;;18.73;3.13;;;12.70;99.90;;;;;;5112879;28;20093;-73
2023/04/12 10:17:02;;;;;;;21.20;3.05;;;12.80;99.90;;;;;;5114720;28;20027;-73
2023/04/12 10:19:29;;;;;;;27.52;3.78;;;12.90;99.90;;;;;;5109472;28;20020;-73
2023/04/12 10:21:56;;;;;;;19.45;3.25;;;12.90;99.90;;;;;;5106071;28;20031;-73
2023/04/12 10:24:23;;;;;;;19.17;2.60;;;12.80;99.90;;;;;;5114536;28;20378;-73
2023/04/12 10:26:49;;;;;;;12.60;2.38;;;12.60;99.90;;;;;;5101243;28;20028;-73
2023/04/12 10:29:37;;;;;;;16.85;2.47;;;12.70;99.90;;;;;;5114132;28;20028;-73
2023/04/12 10:32:23;;;;;;;14.73;2.08;;;12.80;99.90;;;;;;5114354;28;20024;-73
2023/04/12 10:34:57;;;;;;;16.60;2.50;;;12.90;99.90;;;;;;5099283;28;20028;-73
2023/04/12 10:38:01;;;;;;;10.70;2.03;;;13.00;99.90;;;;;;5108222;28;20034;-73
2023/04/12 10:40:28;;;;;;;8.60;2.08;;;13.10;99.90;;;;;;5092762;28;20062;-73
2023/04/12 10:43:21;;;;;;;17.70;2.60;;;13.10;99.90;;;;;;5106191;28;20368;-73
2023/04/12 10:45:48;;;;;;;15.57;2.45;;;13.10;99.90;;;;;;5112746;28;20059;-73
2023/04/12 10:48:37;;;;;;;17.48;2.40;;;13.10;99.90;;;;;;5101979;28;20119;-73
2023/04/12 10:51:14;;;;;;;13.77;2.30;;;13.20;99.90;;;;;;5102915;28;20024;-73
2023/04/12 10:53:40;;;;;;;11.40;2.15;;;13.20;99.90;;;;;;5112236;28;20020;-72
2023/04/12 10:56:30;;;;;;;10.80;2.28;;;13.20;99.90;;;;;;5112954;28;20080;-72
2023/04/12 10:59:06;;;;;;;13.00;2.17;;;13.20;99.90;;;;;;5102717;28;20016;-73
2023/04/12 11:01:32;;;;;;;10.98;2.55;;;13.30;99.90;;;;;;5110835;28;20036;-73
2023/04/12 11:04:08;;;;;;;9.43;1.83;;;13.40;99.90;;;;;;5095644;28;20073;-72
2023/04/12 11:06:52;;;;;;;9.18;1.90;;;13.40;99.90;;;;;;5114017;28;20031;-72
2023/04/12 11:09:24;;;;;;;10.23;2.20;;;13.30;99.90;;;;;;5113941;28;20024;-73
2023/04/12 11:11:50;;;;;;;13.60;2.40;;;13.20;99.90;;;;;;5113747;28;20582;-73
2023/04/12 11:14:17;;;;;;;14.10;2.50;;;13.10;99.90;;;;;;5113558;28;20019;-73
2023/04/12 11:17:12;;;;;;;10.10;1.75;;;13.10;99.90;;;;;;5113889;28;20528;-73
2023/04/12 11:19:40;;;;;;;5.03;1.20;;;13.10;99.90;;;;;;5091447;28;20047;-74
2023/04/12 11:22:11;;;;;;;7.72;1.38;;;13.00;99.90;;;;;;5109982;28;20050;-74
2023/04/12 11:24:50;;;;;;;8.45;1.63;;;12.90;99.90;;;;;;5085973;28;20023;-73
2023/04/12 11:27:19;;;;;;;9.30;1.40;;;12.80;98.80;;;;;;5100098;28;20477;-73
2023/04/12 11:29:48;;;;;;;10.68;1.40;;;12.70;99.20;;;;;;5095074;28;20015;-73
2023/04/12 11:32:14;;;;;;;6.53;1.45;;;12.70;98.80;;;;;;5093593;28;20028;-73
2023/04/12 11:34:41;;;;;;;7.50;1.58;;;12.70;98.40;;;;;;5106737;28;20034;-73
2023/04/12 11:37:08;;;;;;;8.80;1.50;;;12.80;98.10;;;;;;5113127;28;20098;-73
2023/04/12 11:39:43;;;;;;;7.30;1.10;;;12.80;98.80;;;;;;5099488;28;20024;-73
2023/04/12 11:42:14;;;;;;;6.15;1.10;;;12.80;97.60;;;;;;5110421;28;20047;-73
2023/04/12 11:44:42;;;;;;;5.40;1.23;;;12.90;95.10;;;;;;5107943;28;20072;-73
2023/04/12 11:47:22;;;;;;;6.80;1.58;;;12.80;91.80;;;;;;5112734;28;20123;-73
2023/04/12 11:49:55;;;;;;;9.73;1.50;;;12.70;91.90;;;;;;5100252;28;20060;-73
2023/04/12 11:52:28;;;;;;;10.60;1.83;;;12.50;93.20;;;;;;5100306;28;20028;-73
2023/04/12 11:54:57;;;;;;;12.30;1.70;;;12.50;94.10;;;;;;5099644;28;20039;-73
2023/04/12 11:57:23;;;;;;;6.93;1.42;;;12.50;94.10;;;;;;5112754;28;20051;-73
2023/04/12 11:59:49;;;;;;;7.47;1.25;;;12.40;94.60;;;;;;5110433;28;20024;-73
2023/04/12 12:02:19;;;;;;;12.40;1.63;;;12.20;94.50;;;;;;5092613;28;20414;-73
2023/04/12 12:04:47;;;;;;;9.93;1.73;;;12.10;95.60;;;;;;5109184;28;20176;-73
2023/04/12 12:07:15;;;;;;;11.52;2.03;;;12.00;96.80;;;;;;5112850;28;20036;-73
2023/04/12 12:09:42;;;;;;;9.57;2.40;;;11.90;98.10;;;;;;5111926;28;20142;-72
2023/04/12 12:12:10;;;;;;;11.85;2.13;;;11.70;99.90;;;;;;5112640;28;20024;-72
2023/04/12 12:14:35;;;;;;;11.07;2.10;;;11.60;99.90;;;;;;5112058;28;20051;-72
2023/04/12 12:17:07;;;;;;;13.60;2.40;;;11.50;99.90;;;;;;5112456;28;20030;-72
2023/04/12 12:19:37;;;;;;;12.90;2.67;;;11.40;99.90;;;;;;5111924;28;20065;-72
2023/04/12 12:22:08;;;;;;;10.32;1.95;;;11.30;99.90;;;;;;5111353;28;20030;-72
2023/04/12 12:24:35;;;;;;;10.10;1.50;;;11.20;99.90;;;;;;5101447;28;20585;-72
2023/04/12 12:27:02;;;;;;;10.88;1.70;;;11.20;99.90;;;;;;5105462;28;20426;-73
2023/04/12 12:29:34;;;;;;;9.07;2.20;;;11.30;99.90;;;;;;5091903;28;20887;-73
2023/04/12 12:32:00;;;;;;;8.73;1.45;;;11.30;99.90;;;;;;5111261;28;20052;-72
2023/04/12 12:34:31;;;;;;;10.13;1.58;;;11.40;99.90;;;;;;5100188;28;20025;-72
2023/04/12 12:36:56;;;;;;;13.43;2.30;;;11.60;99.90;;;;;;5110296;28;20024;-72
2023/04/12 12:39:22;;;;;;;10.45;1.80;;;11.60;99.90;;;;;;5112001;28;20027;-72
2023/04/12 12:41:54;;;;;;;12.13;2.05;;;11.60;99.90;;;;;;5111523;28;20578;-72
2023/04/12 12:44:24;;;;;;;17.67;2.30;;;11.70;99.90;;;;;;5092047;28;20459;-72
2023/04/12 12:46:50;;;;;;;17.10;2.90;;;11.70;99.90;;;;;;5105756;28;20090;-72
2023/04/12 12:49:17;;;;;;;9.90;2.42;;;11.70;99.90;;;;;;5091897;28;20104;-71
2023/04/12 12:51:43;;;;;;;11.50;2.53;;;11.80;99.90;;;;;;5106804;28;20514;-72